Aslo, Minnesota
Current Conditions -  °F | °C
As of 7:13 AM on Friday 24 Oct 2014 (Local Time) from KMZH Reporting Station
Haze Haze  
Wind Chill: 44°   Ceiling: 300
Heat Index: 46°   Visibility: 4mi
Dew Point: 45°   Wind: 5mph
Humidity: 93%   Direction: 190°S
Pressure: 29.86"   Gusts: NA
Location:  46.2004°N, 92.675°W
Report Text: KMZH 241213Z AUTO 19004KT 4SM BR OVC003 08/07 A2986 RMK AO2
Loading
Personal Weather Stations






























Interactive Weather Map New forecast layout! Learn more

10-Day Weather Forecast

Advertisements
Track Severe Weather on mobile